Terminal Aerodrome Forecast
Issued by NWS

Home | Current Version | Previous Version | Text Only | Print | Product List | Glossary On
Versions: 1 2 3 4 5 6 7 8 9 10 11 12 13 14 15
337
FTUS46 KLOX 272340
TAFVNY
TAF
KVNY 272340Z 2800/2824 34020G30KT P6SM BKN200
     FM280200 35018G25KT P6SM BKN200
     FM280600 35025G35KT P6SM SCT200
     FM281000 36020G30KT P6SM SKC
     FM281400 35017G23KT P6SM SKC
     FM281700 36020G28KT P6SM SKC
     FM282100 35014KT P6SM SKC=

USA.gov is the U.S. government's official web portal to all federal, state and local government web resources and services.